Time;durP1;ratioP1;P1;durP2;ratioP2;P2;SDS_P1;SDS_P2;PMS_P1;PMS_P2;Temp;Humidity;BMP_temperature;BMP_pressure;BME280_temperature;BME280_humidity;BME280_pressure;Samples;Min_cycle;Max_cycle;Signal;HPM_P1;HPM_P2
2021/05/31 00:02:12;;;;;;;4.20;2.90;;;;;;;;;;5023282;28;20432;-78
2021/05/31 00:04:38;;;;;;;3.00;2.50;;;;;;;;;;5035385;28;20480;-78
2021/05/31 00:07:14;;;;;;;3.95;2.80;;;;;;;;;;5021802;28;20688;-77
2021/05/31 00:09:41;;;;;;;3.13;2.60;;;;;;;;;;5019779;28;20241;-78
2021/05/31 00:12:09;;;;;;;4.90;3.00;;;;;;;;;;5021042;28;20651;-78
2021/05/31 00:14:35;;;;;;;3.03;2.70;;;;;;;;;;5013926;28;20182;-77
2021/05/31 00:17:01;;;;;;;3.17;2.60;;;;;;;;;;5023639;28;20190;-78
2021/05/31 00:19:27;;;;;;;3.47;3.17;;;;;;;;;;5020072;28;20190;-77
2021/05/31 00:21:54;;;;;;;4.15;3.50;;;;;;;;;;5035031;28;20195;-78
2021/05/31 00:24:20;;;;;;;4.20;2.72;;;;;;;;;;5021568;28;20684;-78
2021/05/31 00:26:46;;;;;;;3.28;2.50;;;;;;;;;;5035561;28;20183;-78
2021/05/31 00:29:12;;;;;;;4.50;3.38;;;;;;;;;;5038575;28;20179;-77
2021/05/31 00:31:38;;;;;;;3.00;2.80;;;;;;;;;;5020938;28;20190;-77
2021/05/31 00:34:04;;;;;;;3.50;3.20;;;;;;;;;;5029757;28;20191;-77
2021/05/31 00:36:30;;;;;;;3.08;2.78;;;;;;;;;;5034909;28;20273;-76
2021/05/31 00:38:56;;;;;;;4.60;3.45;;;;;;;;;;5034915;28;20245;-78
2021/05/31 00:41:23;;;;;;;7.28;3.85;;;;;;;;;;5037513;28;20221;-77
2021/05/31 00:43:49;;;;;;;3.33;3.00;;;;;;;;;;5021234;28;20203;-78
2021/05/31 00:46:15;;;;;;;3.67;3.38;;;;;;;;;;5023827;28;20178;-78
2021/05/31 00:48:41;;;;;;;3.20;2.90;;;;;;;;;;5037591;28;20185;-78
2021/05/31 00:51:11;;;;;;;3.58;3.25;;;;;;;;;;5020049;28;20217;-78
2021/05/31 00:53:37;;;;;;;3.28;2.97;;;;;;;;;;5024360;28;20370;-78
2021/05/31 00:56:04;;;;;;;3.72;3.05;;;;;;;;;;5042299;28;20312;-78
2021/05/31 00:58:31;;;;;;;3.53;3.20;;;;;;;;;;5023265;28;20221;-78
2021/05/31 01:00:58;;;;;;;3.70;3.28;;;;;;;;;;5033403;28;20187;-78
2021/05/31 01:03:25;;;;;;;3.08;2.83;;;;;;;;;;5023141;28;20198;-78
2021/05/31 01:05:51;;;;;;;3.80;2.92;;;;;;;;;;5023378;28;20198;-78
2021/05/31 01:08:20;;;;;;;3.97;3.35;;;;;;;;;;5025972;28;20595;-78
2021/05/31 01:10:53;;;;;;;3.25;2.95;;;;;;;;;;5024627;28;20278;-78
2021/05/31 01:13:26;;;;;;;4.25;3.60;;;;;;;;;;5024355;28;20599;-78
2021/05/31 01:16:19;;;;;;;4.43;3.35;;;;;;;;;;5023183;28;20273;-78
2021/05/31 01:18:46;;;;;;;3.45;3.15;;;;;;;;;;5016846;28;20194;-78
2021/05/31 01:21:12;;;;;;;4.63;4.22;;;;;;;;;;5023761;28;20206;-78
2021/05/31 01:23:39;;;;;;;7.63;3.80;;;;;;;;;;5023754;28;20202;-77
2021/05/31 01:26:13;;;;;;;5.05;3.70;;;;;;;;;;5042366;28;20329;-78
2021/05/31 01:28:42;;;;;;;3.95;3.55;;;;;;;;;;5023465;28;20174;-78
2021/05/31 01:31:09;;;;;;;4.53;4.00;;;;;;;;;;5024522;28;20183;-78
2021/05/31 01:33:35;;;;;;;5.10;4.05;;;;;;;;;;5022747;28;20210;-78
2021/05/31 01:36:02;;;;;;;4.00;3.60;;;;;;;;;;5038307;28;20325;-78
2021/05/31 01:38:29;;;;;;;4.00;3.58;;;;;;;;;;5024132;28;20175;-77
2021/05/31 01:40:55;;;;;;;3.70;3.33;;;;;;;;;;5039920;28;20170;-78
2021/05/31 01:43:21;;;;;;;4.60;4.20;;;;;;;;;;5032984;28;20205;-78
2021/05/31 01:45:48;;;;;;;4.00;3.70;;;;;;;;;;5022218;28;20214;-78
2021/05/31 01:48:14;;;;;;;4.47;3.92;;;;;;;;;;5037109;28;20240;-77
2021/05/31 01:50:41;;;;;;;6.78;3.70;;;;;;;;;;5022348;28;20198;-77
2021/05/31 01:53:07;;;;;;;4.10;3.70;;;;;;;;;;5041911;28;20178;-78
2021/05/31 01:55:33;;;;;;;6.93;4.05;;;;;;;;;;5023877;28;20178;-77
2021/05/31 01:57:59;;;;;;;4.20;3.80;;;;;;;;;;5021853;28;20190;-77
2021/05/31 02:00:26;;;;;;;4.45;4.10;;;;;;;;;;5037578;28;20185;-77
2021/05/31 02:02:52;;;;;;;4.50;3.65;;;;;;;;;;5035118;28;20198;-77
2021/05/31 02:05:18;;;;;;;4.50;4.10;;;;;;;;;;5039505;28;20182;-77
2021/05/31 02:07:44;;;;;;;5.78;4.00;;;;;;;;;;5023462;28;20171;-77
2021/05/31 02:10:11;;;;;;;4.90;3.70;;;;;;;;;;5021929;28;20218;-77
2021/05/31 02:12:54;;;;;;;4.65;4.25;;;;;;;;;;5023114;28;20174;-77
2021/05/31 02:15:32;;;;;;;4.88;3.63;;;;;;;;;;5027126;28;20539;-77
2021/05/31 02:18:16;;;;;;;4.53;4.13;;;;;;;;;;5021840;28;20544;-77
2021/05/31 02:20:44;;;;;;;6.78;5.07;;;;;;;;;;5019464;28;20234;-77
2021/05/31 02:23:11;;;;;;;5.28;4.55;;;;;;;;;;5025655;28;20225;-76
2021/05/31 02:25:38;;;;;;;7.50;5.10;;;;;;;;;;5023899;28;20166;-77
2021/05/31 02:28:05;;;;;;;5.97;4.70;;;;;;;;;;5021855;28;20265;-77
2021/05/31 02:30:31;;;;;;;4.15;3.75;;;;;;;;;;5037346;28;20319;-77
2021/05/31 02:32:59;;;;;;;5.00;4.13;;;;;;;;;;5021423;28;20254;-77
2021/05/31 02:35:26;;;;;;;4.93;4.45;;;;;;;;;;5013049;28;20514;-77
2021/05/31 02:37:52;;;;;;;5.82;4.35;;;;;;;;;;5037637;28;20183;-77
2021/05/31 02:40:18;;;;;;;5.40;3.75;;;;;;;;;;5021503;28;20185;-77
2021/05/31 02:42:46;;;;;;;6.38;4.60;;;;;;;;;;5032619;28;20195;-77
2021/05/31 02:45:13;;;;;;;6.07;4.05;;;;;;;;;;5021388;28;20182;-77
2021/05/31 02:47:39;;;;;;;5.93;4.40;;;;;;;;;;5031512;28;20186;-77
2021/05/31 02:50:06;;;;;;;7.72;5.57;;;;;;;;;;5024871;28;20179;-77
2021/05/31 02:52:32;;;;;;;5.60;4.05;;;;;;;;;;5020493;28;20241;-77
2021/05/31 02:54:58;;;;;;;5.18;4.38;;;;;;;;;;5021441;28;20189;-76
2021/05/31 02:57:24;;;;;;;4.32;3.90;;;;;;;;;;5036817;28;20193;-77
2021/05/31 02:59:54;;;;;;;6.05;5.45;;;;;;;;;;5020982;28;20182;-77
2021/05/31 03:02:20;;;;;;;10.73;5.03;;;;;;;;;;5038662;28;20182;-77
2021/05/31 03:04:46;;;;;;;6.72;4.10;;;;;;;;;;5022452;28;20201;-77
2021/05/31 03:07:12;;;;;;;6.03;3.80;;;;;;;;;;5031044;28;20190;-77
2021/05/31 03:09:38;;;;;;;5.35;4.70;;;;;;;;;;5020460;28;20557;-77
2021/05/31 03:12:04;;;;;;;5.50;4.15;;;;;;;;;;5036059;28;20190;-77
2021/05/31 03:14:30;;;;;;;5.50;4.53;;;;;;;;;;5022802;28;25023;-77
2021/05/31 03:16:56;;;;;;;5.65;5.15;;;;;;;;;;5022795;28;20178;-77
2021/05/31 03:19:22;;;;;;;5.10;4.60;;;;;;;;;;5022927;28;20190;-77
2021/05/31 03:21:48;;;;;;;7.30;4.90;;;;;;;;;;5028813;28;20198;-78
2021/05/31 03:24:14;;;;;;;5.90;4.97;;;;;;;;;;5019427;28;20487;-77
2021/05/31 03:26:40;;;;;;;5.68;5.07;;;;;;;;;;5037732;28;20210;-77
2021/05/31 03:29:06;;;;;;;6.23;4.10;;;;;;;;;;5024362;28;20182;-77
2021/05/31 03:31:32;;;;;;;5.90;4.85;;;;;;;;;;5035643;28;20923;-77
2021/05/31 03:33:58;;;;;;;5.53;4.93;;;;;;;;;;5022141;28;20198;-77
2021/05/31 03:36:24;;;;;;;5.00;4.50;;;;;;;;;;5020769;28;20210;-77
2021/05/31 03:38:50;;;;;;;7.27;5.60;;;;;;;;;;5020598;28;20183;-78
2021/05/31 03:41:16;;;;;;;5.63;5.07;;;;;;;;;;5023274;28;20500;-77
2021/05/31 03:43:42;;;;;;;5.90;4.55;;;;;;;;;;5038443;28;20194;-78
2021/05/31 03:46:08;;;;;;;5.33;4.30;;;;;;;;;;5030011;28;20549;-77
2021/05/31 03:48:34;;;;;;;6.28;4.80;;;;;;;;;;5035536;28;20442;-76
2021/05/31 03:51:10;;;;;;;5.07;4.03;;;;;;;;;;5020193;28;20213;-77
2021/05/31 03:53:39;;;;;;;8.48;5.03;;;;;;;;;;5036131;28;20430;-77
2021/05/31 03:56:07;;;;;;;7.57;5.00;;;;;;;;;;5024212;28;20201;-77
2021/05/31 03:58:33;;;;;;;6.05;5.45;;;;;;;;;;5030255;28;20200;-78
2021/05/31 04:01:00;;;;;;;5.75;4.80;;;;;;;;;;5018585;28;20193;-77
2021/05/31 04:03:27;;;;;;;6.20;5.15;;;;;;;;;;5025984;28;20253;-78
2021/05/31 04:06:04;;;;;;;7.50;6.10;;;;;;;;;;5020727;28;20191;-78
2021/05/31 04:13:59;;;;;;;6.57;5.78;;;;;;;;;;5022462;28;20186;-77
2021/05/31 04:16:25;;;;;;;5.93;5.25;;;;;;;;;;5019855;28;20193;-78
2021/05/31 04:18:51;;;;;;;6.47;5.60;;;;;;;;;;5029606;28;20222;-78
2021/05/31 04:21:17;;;;;;;5.73;5.13;;;;;;;;;;5025411;28;20190;-78
2021/05/31 04:23:43;;;;;;;7.47;6.10;;;;;;;;;;5040513;28;20548;-77
2021/05/31 04:26:09;;;;;;;6.67;5.23;;;;;;;;;;5027327;28;20425;-76
2021/05/31 04:28:35;;;;;;;8.80;6.30;;;;;;;;;;5039404;28;20406;-77
2021/05/31 04:31:01;;;;;;;6.57;5.87;;;;;;;;;;5023567;28;20198;-76
2021/05/31 04:33:27;;;;;;;5.83;5.10;;;;;;;;;;5023804;28;20437;-77
2021/05/31 04:35:53;;;;;;;6.60;5.83;;;;;;;;;;5024321;28;20716;-77
2021/05/31 04:38:19;;;;;;;7.93;5.57;;;;;;;;;;5041694;28;20671;-77
2021/05/31 04:40:45;;;;;;;5.75;5.28;;;;;;;;;;5040356;28;20225;-77
2021/05/31 04:43:11;;;;;;;6.67;5.27;;;;;;;;;;5024903;28;20210;-78
2021/05/31 04:45:37;;;;;;;11.30;6.80;;;;;;;;;;5031378;28;20604;-78
2021/05/31 04:48:03;;;;;;;7.53;5.38;;;;;;;;;;5023720;28;20444;-79
2021/05/31 04:50:29;;;;;;;6.05;5.30;;;;;;;;;;5024080;28;20224;-78
2021/05/31 04:52:55;;;;;;;8.48;6.72;;;;;;;;;;5040740;28;20716;-79
2021/05/31 04:55:22;;;;;;;6.57;5.88;;;;;;;;;;5023763;28;20192;-79
2021/05/31 04:57:48;;;;;;;9.93;6.32;;;;;;;;;;5038050;28;20185;-78
2021/05/31 05:00:15;;;;;;;8.45;7.25;;;;;;;;;;5025025;28;20182;-78
2021/05/31 05:02:41;;;;;;;7.10;6.07;;;;;;;;;;5022764;28;20209;-77
2021/05/31 05:05:07;;;;;;;10.33;7.50;;;;;;;;;;5026628;28;20206;-78
2021/05/31 05:07:33;;;;;;;9.13;7.45;;;;;;;;;;5022949;28;20433;-79
2021/05/31 05:09:59;;;;;;;9.13;7.80;;;;;;;;;;5037986;28;20510;-78
2021/05/31 05:12:25;;;;;;;10.83;7.57;;;;;;;;;;5039381;28;20277;-79
2021/05/31 05:14:51;;;;;;;12.15;8.18;;;;;;;;;;5038953;28;20442;-79
2021/05/31 05:17:17;;;;;;;9.43;7.83;;;;;;;;;;5039894;28;20210;-78
2021/05/31 05:19:43;;;;;;;9.30;8.25;;;;;;;;;;5039313;28;20430;-78
2021/05/31 05:22:09;;;;;;;10.43;8.53;;;;;;;;;;5024324;28;20192;-78
2021/05/31 05:24:35;;;;;;;13.15;9.48;;;;;;;;;;5037099;28;20565;-78
2021/05/31 05:27:05;;;;;;;13.47;9.87;;;;;;;;;;5040118;28;20277;-77
2021/05/31 05:29:31;;;;;;;10.60;8.35;;;;;;;;;;5039691;28;20437;-78
2021/05/31 05:31:59;;;;;;;13.48;9.90;;;;;;;;;;5023578;28;20179;-78
2021/05/31 05:34:25;;;;;;;14.07;9.57;;;;;;;;;;5022323;28;20190;-78
2021/05/31 05:37:00;;;;;;;13.45;10.85;;;;;;;;;;5022087;28;20198;-78
2021/05/31 05:42:24;;;;;;;12.68;9.45;;;;;;;;;;5023715;28;20202;-79
2021/05/31 05:47:46;;;;;;;10.23;8.50;;;;;;;;;;5025440;28;20188;-79
2021/05/31 05:50:17;;;;;;;11.73;8.30;;;;;;;;;;5021737;28;20174;-79
2021/05/31 05:52:43;;;;;;;8.85;7.65;;;;;;;;;;5023887;28;20178;-80
2021/05/31 05:55:10;;;;;;;9.43;7.63;;;;;;;;;;5022653;28;20240;-79
2021/05/31 05:57:36;;;;;;;9.68;7.40;;;;;;;;;;5022304;28;20243;-79
2021/05/31 06:00:06;;;;;;;12.68;7.50;;;;;;;;;;5022332;28;20193;-80
2021/05/31 06:02:32;;;;;;;9.43;7.93;;;;;;;;;;5038261;28;20676;-80
2021/05/31 06:04:58;;;;;;;7.78;6.93;;;;;;;;;;5023019;28;20211;-81
2021/05/31 06:07:25;;;;;;;7.73;6.80;;;;;;;;;;5022745;28;20195;-80
2021/05/31 06:09:51;;;;;;;7.10;6.30;;;;;;;;;;5021239;28;20437;-81
2021/05/31 06:12:18;;;;;;;8.27;7.28;;;;;;;;;;5021544;28;20213;-80
2021/05/31 06:14:44;;;;;;;7.68;5.93;;;;;;;;;;5021824;28;20187;-80
2021/05/31 06:17:10;;;;;;;6.57;5.97;;;;;;;;;;5040038;28;20188;-79
2021/05/31 06:19:36;;;;;;;7.18;5.95;;;;;;;;;;5024063;28;20212;-80
2021/05/31 06:22:02;;;;;;;8.45;5.78;;;;;;;;;;5023468;28;20185;-79
2021/05/31 06:24:28;;;;;;;7.82;5.55;;;;;;;;;;5039160;28;20228;-80
2021/05/31 06:26:54;;;;;;;7.32;6.15;;;;;;;;;;5036716;28;20665;-81
2021/05/31 06:29:20;;;;;;;7.60;5.97;;;;;;;;;;5017826;28;20239;-81
2021/05/31 06:31:46;;;;;;;8.63;5.53;;;;;;;;;;5023293;28;20429;-77
2021/05/31 06:34:12;;;;;;;7.68;5.18;;;;;;;;;;5022016;28;20460;-81
2021/05/31 06:36:42;;;;;;;8.20;4.93;;;;;;;;;;5036874;28;20235;-81
2021/05/31 06:39:11;;;;;;;7.60;5.63;;;;;;;;;;5038270;28;20205;-81
2021/05/31 06:41:37;;;;;;;8.20;5.25;;;;;;;;;;5021898;28;20179;-80
2021/05/31 06:44:03;;;;;;;8.02;5.85;;;;;;;;;;5024823;28;20289;-81
2021/05/31 06:46:29;;;;;;;8.55;5.90;;;;;;;;;;5021870;28;20236;-80
2021/05/31 06:48:55;;;;;;;7.90;5.30;;;;;;;;;;5021547;28;20193;-82
2021/05/31 06:51:21;;;;;;;11.30;6.07;;;;;;;;;;5036375;28;20186;-79
2021/05/31 06:53:47;;;;;;;6.30;5.00;;;;;;;;;;5036201;28;20457;-80
2021/05/31 06:56:16;;;;;;;5.93;4.78;;;;;;;;;;5025087;28;20591;-80
2021/05/31 06:58:42;;;;;;;8.45;4.30;;;;;;;;;;5037677;28;20174;-80
2021/05/31 07:01:09;;;;;;;4.43;3.88;;;;;;;;;;5030241;28;20218;-81
2021/05/31 07:03:35;;;;;;;7.38;3.88;;;;;;;;;;5020943;28;20691;-83
2021/05/31 07:06:02;;;;;;;5.28;3.65;;;;;;;;;;5021417;28;20191;-79
2021/05/31 07:08:28;;;;;;;6.35;4.40;;;;;;;;;;5023014;28;20233;-79
2021/05/31 07:10:56;;;;;;;5.07;3.97;;;;;;;;;;5022381;28;20269;-81
2021/05/31 07:13:23;;;;;;;4.15;3.42;;;;;;;;;;5021035;28;20199;-80
2021/05/31 07:15:50;;;;;;;7.65;4.28;;;;;;;;;;5022619;28;20186;-81
2021/05/31 07:18:16;;;;;;;7.20;3.70;;;;;;;;;;5021074;28;20217;-81
2021/05/31 07:20:42;;;;;;;4.70;3.88;;;;;;;;;;5038359;28;20190;-80
2021/05/31 07:23:11;;;;;;;4.43;3.33;;;;;;;;;;5038756;28;20186;-80
2021/05/31 07:25:37;;;;;;;6.47;3.90;;;;;;;;;;5022787;28;20174;-80
2021/05/31 07:28:03;;;;;;;6.47;4.32;;;;;;;;;;5030923;28;20201;-78
2021/05/31 07:30:30;;;;;;;3.65;3.35;;;;;;;;;;5035505;28;20213;-82
2021/05/31 07:32:56;;;;;;;6.50;3.55;;;;;;;;;;5020151;28;20198;-81
2021/05/31 07:35:22;;;;;;;4.80;4.10;;;;;;;;;;5022828;28;20179;-80
2021/05/31 07:37:48;;;;;;;5.30;4.03;;;;;;;;;;5021872;28;20425;-80
2021/05/31 07:40:15;;;;;;;3.58;2.92;;;;;;;;;;5019797;28;20457;-81
2021/05/31 07:42:41;;;;;;;6.53;4.15;;;;;;;;;;5032116;28;20183;-80
2021/05/31 07:45:08;;;;;;;5.47;3.67;;;;;;;;;;5036048;28;20614;-80
2021/05/31 07:47:34;;;;;;;4.65;3.47;;;;;;;;;;5021413;28;20199;-81
2021/05/31 07:50:00;;;;;;;8.27;3.40;;;;;;;;;;5023172;28;20179;-80
2021/05/31 07:52:28;;;;;;;4.10;3.70;;;;;;;;;;5019663;28;20194;-81
2021/05/31 07:54:54;;;;;;;4.20;3.30;;;;;;;;;;5019594;28;20269;-81
2021/05/31 07:57:21;;;;;;;3.77;3.47;;;;;;;;;;5034945;28;20668;-80
2021/05/31 07:59:47;;;;;;;4.13;3.15;;;;;;;;;;5020298;28;20511;-82
2021/05/31 08:02:14;;;;;;;3.47;3.17;;;;;;;;;;5022675;28;20179;-77
2021/05/31 08:04:40;;;;;;;3.50;2.80;;;;;;;;;;5037881;28;20213;-80
2021/05/31 08:07:06;;;;;;;4.65;3.47;;;;;;;;;;5030102;28;20192;-79
2021/05/31 08:09:32;;;;;;;3.53;2.85;;;;;;;;;;5019590;28;20240;-81
2021/05/31 08:11:58;;;;;;;4.32;3.00;;;;;;;;;;5019550;28;20329;-80
2021/05/31 08:14:25;;;;;;;3.35;3.00;;;;;;;;;;5022193;28;20171;-81
2021/05/31 08:16:51;;;;;;;4.15;3.03;;;;;;;;;;5038085;28;20188;-80
2021/05/31 08:19:19;;;;;;;5.50;2.70;;;;;;;;;;5018358;28;20669;-80
2021/05/31 08:21:46;;;;;;;2.95;2.70;;;;;;;;;;5035903;28;20180;-82
2021/05/31 08:24:22;;;;;;;3.30;2.90;;;;;;;;;;5035096;28;20291;-80
2021/05/31 08:26:48;;;;;;;4.65;3.10;;;;;;;;;;5033686;28;20274;-79
2021/05/31 08:29:15;;;;;;;3.75;2.35;;;;;;;;;;5022972;28;20181;-80
2021/05/31 08:31:41;;;;;;;3.25;2.50;;;;;;;;;;5035039;28;20272;-81
2021/05/31 08:34:07;;;;;;;9.50;2.92;;;;;;;;;;5035131;28;20225;-79
2021/05/31 08:36:33;;;;;;;4.43;2.63;;;;;;;;;;5031829;28;20181;-83
2021/05/31 08:38:58;;;;;;;3.03;2.73;;;;;;;;;;5016043;28;20524;-81
2021/05/31 08:41:25;;;;;;;3.73;2.60;;;;;;;;;;5021775;28;20436;-80
2021/05/31 08:43:52;;;;;;;6.43;2.90;;;;;;;;;;5020881;28;20465;-80
2021/05/31 08:46:18;;;;;;;3.10;2.67;;;;;;;;;;5029846;28;20739;-81
2021/05/31 08:48:44;;;;;;;3.00;2.33;;;;;;;;;;5019368;28;20419;-81
2021/05/31 08:51:10;;;;;;;3.37;2.90;;;;;;;;;;5021389;28;20403;-80
2021/05/31 08:53:36;;;;;;;2.93;2.63;;;;;;;;;;5020014;28;20447;-82
2021/05/31 08:56:06;;;;;;;3.00;2.70;;;;;;;;;;5036440;28;20776;-81
2021/05/31 08:58:31;;;;;;;4.20;2.43;;;;;;;;;;5034819;28;20451;-79
2021/05/31 09:00:57;;;;;;;2.40;2.20;;;;;;;;;;5013169;28;20448;-81
2021/05/31 09:03:23;;;;;;;3.63;2.30;;;;;;;;;;5020565;28;20488;-78
2021/05/31 09:05:51;;;;;;;4.13;2.93;;;;;;;;;;5030508;28;20464;-83
2021/05/31 09:08:19;;;;;;;3.20;2.90;;;;;;;;;;5022963;28;20432;-80
2021/05/31 09:10:56;;;;;;;3.43;2.90;;;;;;;;;;5017472;28;22015;-80
2021/05/31 09:13:27;;;;;;;2.60;2.40;;;;;;;;;;5013778;28;20453;-80
2021/05/31 09:16:14;;;;;;;5.10;2.63;;;;;;;;;;5038231;28;20448;-82
2021/05/31 09:18:45;;;;;;;4.00;2.77;;;;;;;;;;5022708;28;20445;-79
2021/05/31 09:21:19;;;;;;;4.13;2.73;;;;;;;;;;5040045;28;20978;-83
2021/05/31 09:23:46;;;;;;;2.77;2.57;;;;;;;;;;5032150;28;21228;-82
2021/05/31 09:26:12;;;;;;;4.30;2.70;;;;;;;;;;5025467;28;20471;-80
2021/05/31 09:28:38;;;;;;;5.60;2.97;;;;;;;;;;5024470;28;20408;-81
2021/05/31 09:31:17;;;;;;;2.60;2.30;;;;;;;;;;5022998;28;20509;-79
2021/05/31 09:33:43;;;;;;;2.53;2.33;;;;;;;;;;5023688;28;20426;-78
2021/05/31 09:36:10;;;;;;;2.83;2.63;;;;;;;;;;5023040;28;20434;-81
2021/05/31 09:38:49;;;;;;;4.60;2.70;;;;;;;;;;5023884;28;20456;-80
2021/05/31 09:41:35;;;;;;;3.00;2.23;;;;;;;;;;5040243;28;20421;-79
2021/05/31 09:44:01;;;;;;;2.80;2.60;;;;;;;;;;5025201;28;20441;-82
2021/05/31 09:46:37;;;;;;;7.30;2.53;;;;;;;;;;5036987;28;20480;-84
2021/05/31 09:49:10;;;;;;;5.30;2.43;;;;;;;;;;5019151;28;20439;-81
2021/05/31 09:51:36;;;;;;;2.23;2.03;;;;;;;;;;5016811;28;20423;-82
2021/05/31 09:54:02;;;;;;;2.40;2.20;;;;;;;;;;5037310;28;20445;-80
2021/05/31 09:56:28;;;;;;;3.10;2.57;;;;;;;;;;5024583;28;20417;-86
2021/05/31 09:59:01;;;;;;;2.90;2.50;;;;;;;;;;5024473;28;20427;-80
2021/05/31 10:01:39;;;;;;;5.10;2.67;;;;;;;;;;5021641;28;20447;-80
2021/05/31 10:07:14;;;;;;;2.60;2.40;;;;;;;;;;5016296;28;20429;-82
2021/05/31 10:09:40;;;;;;;2.57;2.37;;;;;;;;;;5021973;28;20429;-83
2021/05/31 10:12:06;;;;;;;2.93;2.20;;;;;;;;;;5037191;28;20518;-80
2021/05/31 10:14:33;;;;;;;5.60;2.80;;;;;;;;;;5023412;28;20408;-79
2021/05/31 10:17:00;;;;;;;2.50;2.30;;;;;;;;;;5023684;28;20414;-81
2021/05/31 10:19:26;;;;;;;3.90;2.63;;;;;;;;;;5024265;28;20917;-80
2021/05/31 10:21:52;;;;;;;2.70;2.50;;;;;;;;;;5025542;28;20423;-81
2021/05/31 10:24:18;;;;;;;2.70;2.20;;;;;;;;;;5021855;28;20506;-79
2021/05/31 10:26:44;;;;;;;4.97;2.73;;;;;;;;;;5037360;28;20447;-82
2021/05/31 10:29:10;;;;;;;2.90;2.70;;;;;;;;;;5022652;28;20390;-79
2021/05/31 10:31:44;;;;;;;2.77;2.13;;;;;;;;;;5033539;28;20447;-78
2021/05/31 10:34:20;;;;;;;4.20;2.73;;;;;;;;;;5023292;28;20430;-80
2021/05/31 10:36:50;;;;;;;4.70;2.50;;;;;;;;;;5019570;28;20471;-79
2021/05/31 10:39:26;;;;;;;2.63;2.40;;;;;;;;;;5024671;28;20475;-78
2021/05/31 10:42:08;;;;;;;2.67;2.40;;;;;;;;;;5023911;28;20428;-80
2021/05/31 10:44:34;;;;;;;3.30;3.00;;;;;;;;;;5023928;28;20478;-80
2021/05/31 10:47:09;;;;;;;4.13;2.63;;;;;;;;;;5023624;28;20915;-77
2021/05/31 10:49:35;;;;;;;2.40;2.20;;;;;;;;;;5031777;28;20969;-79
2021/05/31 10:52:01;;;;;;;4.20;2.80;;;;;;;;;;5033267;28;20493;-80
2021/05/31 10:54:34;;;;;;;3.10;2.63;;;;;;;;;;5037735;28;20469;-81
2021/05/31 10:57:04;;;;;;;3.27;2.97;;;;;;;;;;5038489;28;20548;-81
2021/05/31 10:59:30;;;;;;;3.47;2.60;;;;;;;;;;5025480;28;20481;-79
2021/05/31 11:01:56;;;;;;;5.03;3.40;;;;;;;;;;5022653;28;20433;-78
2021/05/31 11:04:23;;;;;;;2.73;2.53;;;;;;;;;;5018926;28;20473;-80
2021/05/31 11:06:51;;;;;;;3.90;3.07;;;;;;;;;;5031720;28;20464;-79
2021/05/31 11:09:21;;;;;;;2.93;2.50;;;;;;;;;;5022098;28;20450;-81
2021/05/31 11:11:49;;;;;;;2.90;2.63;;;;;;;;;;5019803;28;20465;-78
2021/05/31 11:14:15;;;;;;;3.20;2.87;;;;;;;;;;5022659;28;20446;-77
2021/05/31 11:16:55;;;;;;;3.67;2.40;;;;;;;;;;5023182;28;20425;-78
2021/05/31 11:19:31;;;;;;;5.30;2.80;;;;;;;;;;5023875;28;20449;-79
2021/05/31 11:21:57;;;;;;;3.00;2.70;;;;;;;;;;5024665;28;20486;-81
2021/05/31 11:24:24;;;;;;;2.70;2.37;;;;;;;;;;5019255;28;20548;-80
2021/05/31 11:26:50;;;;;;;4.30;2.30;;;;;;;;;;5021127;28;20483;-81
2021/05/31 11:29:16;;;;;;;5.07;3.00;;;;;;;;;;5023211;28;20399;-78
2021/05/31 11:31:44;;;;;;;4.30;3.10;;;;;;;;;;5017278;28;21226;-79
2021/05/31 11:34:11;;;;;;;6.90;2.90;;;;;;;;;;5022705;28;20535;-78
2021/05/31 11:36:41;;;;;;;3.07;2.87;;;;;;;;;;5020000;28;20538;-78
2021/05/31 11:39:14;;;;;;;3.10;2.67;;;;;;;;;;5018377;28;20441;-81
2021/05/31 11:41:42;;;;;;;3.87;2.40;;;;;;;;;;5017973;28;20421;-81
2021/05/31 11:44:10;;;;;;;3.40;2.33;;;;;;;;;;5034826;28;20462;-75
2021/05/31 11:46:53;;;;;;;2.97;2.67;;;;;;;;;;5034805;28;20432;-80
2021/05/31 11:49:19;;;;;;;2.70;2.50;;;;;;;;;;5015565;28;20444;-82
2021/05/31 11:52:05;;;;;;;2.87;2.30;;;;;;;;;;5031720;28;20466;-80
2021/05/31 11:54:33;;;;;;;4.00;2.60;;;;;;;;;;5021765;28;20441;-86
2021/05/31 11:57:03;;;;;;;2.60;2.40;;;;;;;;;;5014252;28;20447;-81
2021/05/31 11:59:36;;;;;;;2.63;2.43;;;;;;;;;;5022078;28;20448;-79
2021/05/31 12:02:04;;;;;;;3.37;3.17;;;;;;;;;;5022857;28;20516;-78
2021/05/31 12:04:30;;;;;;;2.87;2.57;;;;;;;;;;5036217;28;20468;-78
2021/05/31 12:06:57;;;;;;;3.37;2.23;;;;;;;;;;5016422;28;20439;-79
2021/05/31 12:09:24;;;;;;;2.87;2.67;;;;;;;;;;5020230;28;20436;-78
2021/05/31 12:11:53;;;;;;;2.40;2.20;;;;;;;;;;5017808;28;20526;-79
2021/05/31 12:14:20;;;;;;;2.90;2.23;;;;;;;;;;5035226;28;20850;-78
2021/05/31 12:17:15;;;;;;;2.80;2.60;;;;;;;;;;5022686;28;20756;-78
2021/05/31 12:19:41;;;;;;;3.07;2.40;;;;;;;;;;5026571;28;20449;-79
2021/05/31 12:22:08;;;;;;;2.97;2.67;;;;;;;;;;5032653;28;20830;-79
2021/05/31 12:24:36;;;;;;;4.80;3.53;;;;;;;;;;5017550;28;20479;-79
2021/05/31 12:27:02;;;;;;;3.23;2.83;;;;;;;;;;5020957;28;20486;-78
2021/05/31 12:29:35;;;;;;;3.63;2.77;;;;;;;;;;5036979;28;20439;-81
2021/05/31 12:32:05;;;;;;;4.40;2.40;;;;;;;;;;5026562;28;20456;-77
2021/05/31 12:34:32;;;;;;;3.03;2.53;;;;;;;;;;5024873;28;20439;-79
2021/05/31 12:36:58;;;;;;;2.93;2.73;;;;;;;;;;5035473;28;20505;-84
2021/05/31 12:39:24;;;;;;;3.60;3.30;;;;;;;;;;5022285;28;21409;-80
2021/05/31 12:41:50;;;;;;;4.17;3.40;;;;;;;;;;5038556;28;20555;-83
2021/05/31 12:44:16;;;;;;;3.33;2.63;;;;;;;;;;5041332;28;20473;-79
2021/05/31 12:46:43;;;;;;;5.53;3.53;;;;;;;;;;5026567;28;20491;-81
2021/05/31 12:49:10;;;;;;;4.27;2.93;;;;;;;;;;5024854;28;20459;-78
2021/05/31 12:51:37;;;;;;;2.80;2.70;;;;;;;;;;5026579;28;20456;-79
2021/05/31 12:54:04;;;;;;;3.03;2.80;;;;;;;;;;5026374;28;20436;-79
2021/05/31 12:56:35;;;;;;;3.10;2.90;;;;;;;;;;5037883;28;20472;-78
2021/05/31 12:59:05;;;;;;;4.43;2.97;;;;;;;;;;5027085;28;20421;-78
2021/05/31 13:01:31;;;;;;;6.97;2.80;;;;;;;;;;5023416;28;20492;-81
2021/05/31 13:03:58;;;;;;;4.20;2.90;;;;;;;;;;5021042;28;20551;-80
2021/05/31 13:06:37;;;;;;;3.33;3.03;;;;;;;;;;5036420;28;20461;-78
2021/05/31 13:09:04;;;;;;;2.57;2.43;;;;;;;;;;5020447;28;20911;-81
2021/05/31 13:11:43;;;;;;;3.30;2.40;;;;;;;;;;5040190;28;20491;-80
2021/05/31 13:14:21;;;;;;;2.93;2.70;;;;;;;;;;5028425;28;20424;-78
2021/05/31 13:17:01;;;;;;;3.50;2.40;;;;;;;;;;5029265;28;20880;-79
2021/05/31 13:19:28;;;;;;;5.30;2.60;;;;;;;;;;5022570;28;20437;-78
2021/05/31 13:21:56;;;;;;;4.30;2.40;;;;;;;;;;5022817;28;20457;-79
2021/05/31 13:24:23;;;;;;;2.77;2.47;;;;;;;;;;5022105;28;20469;-81
2021/05/31 13:26:49;;;;;;;2.50;2.40;;;;;;;;;;5023011;28;20433;-78
2021/05/31 13:29:20;;;;;;;3.30;2.33;;;;;;;;;;5023751;28;20413;-80
2021/05/31 13:31:46;;;;;;;2.57;2.40;;;;;;;;;;5024608;28;20419;-83
2021/05/31 13:34:12;;;;;;;2.77;2.57;;;;;;;;;;5023130;28;20448;-78
2021/05/31 13:36:38;;;;;;;4.00;2.40;;;;;;;;;;5023149;28;20554;-78
2021/05/31 13:39:08;;;;;;;4.13;2.50;;;;;;;;;;5023690;28;20425;-77
2021/05/31 13:41:38;;;;;;;2.53;2.33;;;;;;;;;;5018085;28;20447;-78
2021/05/31 13:44:08;;;;;;;3.17;2.67;;;;;;;;;;5025891;28;20437;-78
2021/05/31 13:46:34;;;;;;;3.00;2.30;;;;;;;;;;5022834;28;20437;-78
2021/05/31 13:49:00;;;;;;;3.57;2.40;;;;;;;;;;5021948;28;20459;-77
2021/05/31 13:51:27;;;;;;;4.53;2.30;;;;;;;;;;5022808;28;20403;-79
2021/05/31 13:53:54;;;;;;;2.20;2.10;;;;;;;;;;5037022;28;20453;-77
2021/05/31 13:56:19;;;;;;;4.50;2.17;;;;;;;;;;5039769;28;20650;-78
2021/05/31 13:58:45;;;;;;;3.47;2.67;;;;;;;;;;5024280;28;20420;-78
2021/05/31 14:01:11;;;;;;;2.60;2.40;;;;;;;;;;5022421;28;20454;-78
2021/05/31 14:03:37;;;;;;;3.13;2.50;;;;;;;;;;5022204;28;20532;-77
2021/05/31 14:06:03;;;;;;;3.47;3.17;;;;;;;;;;5023108;28;20399;-78
2021/05/31 14:08:29;;;;;;;2.70;2.30;;;;;;;;;;5023724;28;20507;-75
2021/05/31 14:10:55;;;;;;;3.10;2.17;;;;;;;;;;5024534;28;20470;-80
2021/05/31 14:13:21;;;;;;;4.83;2.60;;;;;;;;;;5025490;28;20419;-77
2021/05/31 14:15:47;;;;;;;3.97;2.00;;;;;;;;;;5022741;28;20438;-77
2021/05/31 14:18:13;;;;;;;2.93;2.43;;;;;;;;;;5023334;28;20443;-76
2021/05/31 14:20:40;;;;;;;2.57;2.20;;;;;;;;;;5024752;28;20434;-78
2021/05/31 14:23:06;;;;;;;3.30;2.30;;;;;;;;;;5040412;28;20406;-82
2021/05/31 14:25:33;;;;;;;2.67;2.47;;;;;;;;;;5022150;28;20492;-78
2021/05/31 14:28:00;;;;;;;3.63;2.03;;;;;;;;;;5021837;28;20747;-78
2021/05/31 14:30:27;;;;;;;4.77;2.33;;;;;;;;;;5022008;28;20469;-76
2021/05/31 14:32:56;;;;;;;2.97;2.77;;;;;;;;;;5021807;28;20427;-77
2021/05/31 14:35:23;;;;;;;3.47;2.30;;;;;;;;;;5024350;28;20386;-77
2021/05/31 14:37:49;;;;;;;6.40;2.50;;;;;;;;;;5023215;28;20413;-75
2021/05/31 14:40:15;;;;;;;2.43;2.23;;;;;;;;;;5021791;28;20736;-78
2021/05/31 14:42:41;;;;;;;3.33;2.40;;;;;;;;;;5021780;28;20534;-76
2021/05/31 14:45:10;;;;;;;2.20;2.00;;;;;;;;;;5022275;28;20510;-77
2021/05/31 14:47:37;;;;;;;2.60;2.40;;;;;;;;;;5021593;28;21007;-78
2021/05/31 14:50:03;;;;;;;3.10;2.47;;;;;;;;;;5039895;28;20405;-78
2021/05/31 14:52:32;;;;;;;3.50;2.70;;;;;;;;;;5021152;28;20412;-77
2021/05/31 14:54:58;;;;;;;2.70;2.43;;;;;;;;;;5020243;28;20980;-77
2021/05/31 14:57:24;;;;;;;2.53;2.33;;;;;;;;;;5021820;28;20498;-77
2021/05/31 14:59:50;;;;;;;3.30;2.17;;;;;;;;;;5021313;28;20505;-77
2021/05/31 15:02:16;;;;;;;2.40;2.20;;;;;;;;;;5023922;28;20424;-77